Time;durP1;ratioP1;P1;durP2;ratioP2;P2;SDS_P1;SDS_P2;PMS_P1;PMS_P2;Temp;Humidity;BMP_temperature;BMP_pressure;BME280_temperature;BME280_humidity;BME280_pressure;Samples;Min_cycle;Max_cycle;Signal;HPM_P1;HPM_P2
2022/04/18 00:02:23;;;;;;;2.10;1.90;;;2.50;99.90;2.20;101262.00;;;;4875019;28;114893;-70
2022/04/18 00:04:49;;;;;;;2.60;1.93;;;2.50;99.90;2.20;101263.00;;;;4864290;28;110448;-71
2022/04/18 00:07:15;;;;;;;7.10;2.27;;;2.40;99.90;2.20;101267.00;;;;4859094;28;93043;-71
2022/04/18 00:09:40;;;;;;;1.53;1.43;;;2.40;99.90;2.20;101261.00;;;;4860928;28;92210;-71
2022/04/18 00:12:15;;;;;;;1.83;1.70;;;2.40;99.90;2.10;101254.00;;;;4864371;28;123489;-71
2022/04/18 00:14:41;;;;;;;2.10;1.90;;;2.40;99.90;2.10;101249.00;;;;4860921;28;121901;-71
2022/04/18 00:17:09;;;;;;;2.77;1.90;;;2.40;99.90;2.10;101255.00;;;;4874475;28;93733;-71
2022/04/18 00:19:36;;;;;;;2.40;2.00;;;2.40;99.90;2.00;101248.00;;;;4864691;28;92758;-71
2022/04/18 00:22:03;;;;;;;1.70;1.23;;;2.30;99.90;2.00;101258.00;;;;4878710;28;93399;-71
2022/04/18 00:24:29;;;;;;;3.60;2.20;;;2.30;99.90;2.00;101248.00;;;;4839937;28;94488;-71
2022/04/18 00:26:55;;;;;;;3.47;2.20;;;2.20;99.90;1.90;101247.00;;;;4865836;28;92917;-71
2022/04/18 00:29:20;;;;;;;3.43;2.23;;;2.20;99.90;1.90;101252.00;;;;4878810;28;108992;-71
2022/04/18 00:31:46;;;;;;;3.43;1.90;;;2.20;99.90;1.90;101249.00;;;;4877901;28;122708;-71
2022/04/18 00:34:14;;;;;;;1.77;1.57;;;2.10;99.90;1.90;101243.00;;;;4860765;28;122530;-71
2022/04/18 00:36:40;;;;;;;2.73;1.37;;;2.10;99.90;1.90;101235.00;;;;4879451;28;92758;-71
2022/04/18 00:39:11;;;;;;;2.27;2.07;;;2.10;99.90;1.90;101221.00;;;;4879374;28;100228;-71
2022/04/18 00:41:37;;;;;;;2.50;2.17;;;2.10;99.90;1.90;101222.00;;;;4851174;28;122877;-71
2022/04/18 00:44:03;;;;;;;4.40;1.80;;;2.10;99.90;1.80;101228.00;;;;4859994;28;95070;-71
2022/04/18 00:46:44;;;;;;;1.83;1.70;;;2.10;99.90;1.80;101220.00;;;;4868271;28;92854;-71
2022/04/18 00:49:13;;;;;;;2.70;1.80;;;2.10;99.90;1.80;101225.00;;;;4878552;28;107102;-71
2022/04/18 00:51:39;;;;;;;1.90;1.80;;;2.10;99.90;1.80;101218.00;;;;4877266;28;122573;-71
2022/04/18 00:54:05;;;;;;;2.10;1.93;;;2.10;99.90;1.80;101219.00;;;;4879358;28;92676;-71
2022/04/18 00:56:32;;;;;;;2.03;1.87;;;2.00;99.90;1.70;101219.00;;;;4878618;28;110779;-71
2022/04/18 00:58:58;;;;;;;1.83;1.67;;;2.00;99.90;1.70;101210.00;;;;4878452;28;92211;-71
2022/04/18 01:01:24;;;;;;;1.77;1.63;;;2.00;99.90;1.70;101207.00;;;;4876976;28;122642;-71
2022/04/18 01:03:50;;;;;;;3.33;1.93;;;2.00;99.90;1.70;101200.00;;;;4878420;28;93624;-71
2022/04/18 01:06:16;;;;;;;1.53;1.43;;;2.10;99.90;1.70;101193.00;;;;4878684;28;93743;-72
2022/04/18 01:08:43;;;;;;;4.37;2.17;;;2.00;99.90;1.60;101187.00;;;;4844089;28;93085;-71
2022/04/18 01:11:09;;;;;;;2.30;2.07;;;1.90;99.90;1.60;101189.00;;;;4879047;28;94271;-71
2022/04/18 01:13:47;;;;;;;1.50;1.40;;;1.80;99.90;1.50;101196.00;;;;4860225;28;92916;-71
2022/04/18 01:16:14;;;;;;;1.90;1.80;;;1.80;99.90;1.50;101190.00;;;;4845396;28;93211;-71
2022/04/18 01:18:40;;;;;;;2.27;2.00;;;1.80;99.90;1.50;101196.00;;;;4878931;28;92790;-71
2022/04/18 01:21:08;;;;;;;2.20;2.00;;;1.80;99.90;1.50;101193.00;;;;4878530;28;103763;-71
2022/04/18 01:23:34;;;;;;;2.63;1.83;;;1.80;99.90;1.50;101177.00;;;;4870306;28;92150;-71
2022/04/18 01:29:01;;;;;;;2.53;2.30;;;2.00;99.90;1.40;101171.00;;;;4845608;28;92910;-71
2022/04/18 01:31:33;;;;;;;1.80;1.70;;;1.70;99.90;1.40;101167.00;;;;4859679;28;94338;-71
2022/04/18 01:34:00;;;;;;;2.13;1.73;;;1.70;99.90;1.40;101167.00;;;;4860421;28;94068;-71
2022/04/18 01:36:27;;;;;;;2.10;1.90;;;1.70;99.90;1.40;101158.00;;;;4858541;28;92763;-71
2022/04/18 01:38:53;;;;;;;2.83;2.37;;;1.70;99.90;1.30;101172.00;;;;4861323;28;92913;-71
2022/04/18 01:41:20;;;;;;;2.80;1.97;;;1.60;99.90;1.30;101164.00;;;;4878729;28;94157;-71
2022/04/18 01:43:46;;;;;;;2.20;2.10;;;1.60;99.90;1.30;101158.00;;;;4860352;28;92972;-72
2022/04/18 01:46:13;;;;;;;2.00;1.60;;;1.60;99.90;1.40;101160.00;;;;4861093;28;92860;-71
2022/04/18 01:48:39;;;;;;;2.13;2.00;;;1.60;99.90;1.30;101159.00;;;;4843021;28;99681;-71
2022/04/18 01:51:05;;;;;;;2.13;1.60;;;1.60;99.90;1.30;101158.00;;;;4868875;28;94187;-71
2022/04/18 01:53:31;;;;;;;4.50;2.60;;;1.60;99.90;1.20;101157.00;;;;4860223;28;98857;-71
2022/04/18 01:55:57;;;;;;;4.63;2.90;;;1.50;99.90;1.10;101156.00;;;;4878301;28;94213;-71
2022/04/18 01:58:23;;;;;;;1.73;1.63;;;1.50;99.90;1.00;101153.00;;;;4864706;28;92786;-71
2022/04/18 02:00:49;;;;;;;4.10;2.37;;;1.40;99.90;0.90;101147.00;;;;4868488;28;123023;-71
2022/04/18 02:03:14;;;;;;;2.63;2.07;;;1.30;99.90;0.80;101151.00;;;;4875603;28;122046;-71
2022/04/18 02:05:44;;;;;;;2.10;2.00;;;1.20;99.90;0.70;101138.00;;;;4850836;28;101173;-71
2022/04/18 02:08:11;;;;;;;3.53;1.70;;;1.10;99.90;0.70;101143.00;;;;4841658;28;92924;-71
2022/04/18 02:10:37;;;;;;;3.90;2.70;;;1.00;99.90;0.60;101146.00;;;;4865822;28;118741;-71
2022/04/18 02:13:03;;;;;;;3.30;2.57;;;1.00;99.90;0.60;101135.00;;;;4860727;28;93145;-72
2022/04/18 02:15:29;;;;;;;3.10;2.13;;;1.00;99.90;0.60;101134.00;;;;4860276;28;92928;-71
2022/04/18 02:17:55;;;;;;;2.10;2.00;;;0.90;99.90;0.60;101141.00;;;;4854484;28;93143;-71
2022/04/18 02:20:20;;;;;;;3.43;2.97;;;0.90;99.90;0.60;101140.00;;;;4866290;28;120791;-71
2022/04/18 02:22:46;;;;;;;3.90;2.77;;;0.90;99.90;0.50;101135.00;;;;4874240;28;122046;-71
2022/04/18 02:25:12;;;;;;;2.20;2.00;;;0.80;99.90;0.50;101126.00;;;;4851342;28;92874;-71
2022/04/18 02:27:37;;;;;;;5.57;2.63;;;0.80;99.90;0.40;101130.00;;;;4868918;28;102795;-71
2022/04/18 02:30:09;;;;;;;4.27;2.17;;;0.80;99.90;0.40;101116.00;;;;4876662;28;121615;-71
2022/04/18 02:32:51;;;;;;;2.77;2.37;;;0.70;99.90;0.30;101134.00;;;;4845079;28;93045;-72
2022/04/18 02:35:22;;;;;;;2.63;2.43;;;0.60;99.90;0.30;101127.00;;;;4858770;28;92877;-71
2022/04/18 02:37:49;;;;;;;2.83;2.43;;;0.60;99.90;0.30;101121.00;;;;4868549;28;92144;-71
2022/04/18 02:40:21;;;;;;;1.73;1.63;;;0.60;99.90;0.20;101105.00;;;;4877389;28;104557;-71
2022/04/18 02:42:47;;;;;;;3.00;2.70;;;0.60;99.90;0.20;101112.00;;;;4848726;28;95051;-71
2022/04/18 02:45:18;;;;;;;2.73;1.87;;;0.50;99.90;0.20;101123.00;;;;4859373;28;94804;-71
2022/04/18 02:47:45;;;;;;;2.40;2.20;;;0.90;99.90;0.20;101107.00;;;;4844054;28;92861;-71
2022/04/18 02:50:11;;;;;;;3.63;2.87;;;0.50;99.90;0.20;101108.00;;;;4859308;28;96322;-71
2022/04/18 02:52:37;;;;;;;7.37;2.90;;;0.40;99.90;0.10;101111.00;;;;4875640;28;92639;-72
2022/04/18 02:55:04;;;;;;;1.67;1.57;;;0.40;99.90;0.10;101115.00;;;;4859581;28;92975;-71
2022/04/18 02:57:30;;;;;;;4.97;2.67;;;0.50;99.90;0.10;101118.00;;;;4878837;28;98478;-71
2022/04/18 02:59:56;;;;;;;3.13;2.20;;;0.40;99.90;0.00;101115.00;;;;4859031;28;94154;-71
2022/04/18 03:02:22;;;;;;;4.53;3.40;;;0.40;99.90;0.00;101114.00;;;;4871986;28;109604;-71
2022/04/18 03:04:47;;;;;;;4.23;3.10;;;0.40;99.90;0.00;101111.00;;;;4855999;28;110057;-71
2022/04/18 03:07:13;;;;;;;2.87;2.57;;;0.30;99.90;0.00;101105.00;;;;4855067;28;108108;-71
2022/04/18 03:09:38;;;;;;;2.90;2.03;;;0.30;99.90;0.00;101102.00;;;;4860159;28;111000;-72
2022/04/18 03:12:06;;;;;;;3.40;1.80;;;0.30;99.90;0.00;101103.00;;;;4838626;28;123682;-71
2022/04/18 03:14:32;;;;;;;7.87;2.50;;;0.30;99.90;0.00;101096.00;;;;4846781;28;92838;-71
2022/04/18 03:16:58;;;;;;;4.97;3.67;;;0.40;99.90;0.00;101090.00;;;;4858442;28;92729;-71
2022/04/18 03:19:25;;;;;;;6.20;4.40;;;0.40;99.90;0.00;101100.00;;;;4859785;28;123089;-71
2022/04/18 03:21:51;;;;;;;6.63;4.97;;;0.30;99.90;0.00;101088.00;;;;4888667;28;94765;-72
2022/04/18 03:24:18;;;;;;;9.57;4.80;;;0.40;99.90;0.00;101081.00;;;;4859722;28;93029;-71
2022/04/18 03:26:44;;;;;;;7.23;5.17;;;0.30;99.90;0.00;101082.00;;;;4876631;28;99337;-72
2022/04/18 03:29:10;;;;;;;9.83;5.17;;;0.30;99.90;0.00;101087.00;;;;4856620;28;93422;-71
2022/04/18 03:31:36;;;;;;;4.83;3.87;;;0.30;99.90;-0.10;101084.00;;;;4864577;28;93769;-71
2022/04/18 03:34:01;;;;;;;7.03;4.23;;;0.30;99.90;0.00;101102.00;;;;4876597;28;93800;-71
2022/04/18 03:41:56;;;;;;;5.03;3.97;;;0.30;99.90;0.00;101073.00;;;;4862796;28;93013;-71
2022/04/18 03:44:22;;;;;;;3.93;3.40;;;0.30;99.90;0.00;101082.00;;;;4852775;28;109789;-71
2022/04/18 03:46:47;;;;;;;4.13;3.30;;;0.30;99.90;-0.10;101081.00;;;;4855195;28;94701;-71
2022/04/18 03:49:13;;;;;;;4.50;3.53;;;0.30;99.90;-0.10;101079.00;;;;4838578;28;122925;-72
2022/04/18 03:51:48;;;;;;;2.57;2.37;;;0.30;99.90;-0.10;101082.00;;;;4857554;28;122284;-72
2022/04/18 03:54:14;;;;;;;4.80;2.93;;;0.20;99.90;-0.20;101086.00;;;;4875428;28;93039;-71
2022/04/18 03:56:40;;;;;;;3.13;2.53;;;0.20;99.90;-0.20;101080.00;;;;4875323;28;92872;-71
2022/04/18 03:59:06;;;;;;;3.90;2.97;;;0.20;99.90;-0.20;101073.00;;;;4877011;28;93813;-71
2022/04/18 04:01:31;;;;;;;3.40;2.20;;;0.20;99.90;-0.30;101077.00;;;;4877852;28;123534;-71
2022/04/18 04:03:57;;;;;;;2.80;2.60;;;0.10;99.90;-0.30;101075.00;;;;4878980;28;92788;-71
2022/04/18 04:06:23;;;;;;;4.43;2.83;;;0.00;99.90;-0.30;101080.00;;;;4878385;28;108026;-72
2022/04/18 04:08:48;;;;;;;4.73;2.67;;;0.00;99.90;-0.30;101068.00;;;;4860860;28;123551;-71
2022/04/18 04:11:14;;;;;;;3.00;2.43;;;0.00;99.90;-0.30;101060.00;;;;4878159;28;123018;-72
2022/04/18 04:13:40;;;;;;;2.30;2.10;;;0.00;99.90;-0.30;101065.00;;;;4877772;28;108945;-72
2022/04/18 04:16:05;;;;;;;2.73;2.20;;;-0.30;99.90;-0.30;101072.00;;;;4879654;28;92088;-72
2022/04/18 04:18:31;;;;;;;4.37;2.13;;;0.00;99.90;-0.30;101074.00;;;;4877868;28;93315;-72
2022/04/18 04:20:57;;;;;;;3.00;1.83;;;0.00;99.90;-0.30;101076.00;;;;4877759;28;121643;-73
2022/04/18 04:23:23;;;;;;;2.87;2.50;;;0.00;99.90;-0.30;101075.00;;;;4858339;28;109604;-72
2022/04/18 04:25:49;;;;;;;2.10;2.00;;;0.10;99.90;-0.30;101069.00;;;;4861050;28;93079;-72
2022/04/18 04:28:14;;;;;;;2.97;2.67;;;0.10;99.90;-0.30;101064.00;;;;4863209;28;109481;-72
2022/04/18 04:30:41;;;;;;;2.93;2.43;;;0.10;99.90;-0.20;101057.00;;;;4859895;28;100558;-72
2022/04/18 04:33:06;;;;;;;2.43;2.23;;;0.10;99.90;-0.20;101055.00;;;;4869343;28;92766;-72
2022/04/18 04:35:32;;;;;;;3.73;3.10;;;0.20;99.90;-0.20;101057.00;;;;4857228;28;108364;-72
2022/04/18 04:37:58;;;;;;;3.07;2.50;;;0.20;99.90;-0.20;101061.00;;;;4871330;28;101514;-72
2022/04/18 04:40:23;;;;;;;2.57;2.10;;;0.20;99.90;-0.10;101050.00;;;;4877518;28;123561;-72
2022/04/18 04:42:49;;;;;;;2.37;1.70;;;0.20;99.90;0.00;101054.00;;;;4877321;28;109228;-72
2022/04/18 04:45:15;;;;;;;2.50;2.30;;;0.30;99.90;0.00;101050.00;;;;4878671;28;92698;-72
2022/04/18 04:47:40;;;;;;;2.40;2.20;;;0.40;99.90;0.10;101045.00;;;;4858193;28;123010;-72
2022/04/18 04:50:07;;;;;;;2.93;2.73;;;0.50;99.90;0.20;101060.00;;;;4870605;28;182142;-71
2022/04/18 04:52:33;;;;;;;3.20;2.70;;;0.50;99.90;0.20;101052.00;;;;4862774;28;100982;-71
2022/04/18 04:55:08;;;;;;;8.07;2.90;;;0.60;99.90;0.30;101053.00;;;;4865315;28;92914;-71
2022/04/18 04:57:34;;;;;;;2.97;2.67;;;0.60;99.90;0.40;101053.00;;;;4876035;28;94607;-72
2022/04/18 05:00:00;;;;;;;2.57;2.23;;;0.70;99.90;0.50;101060.00;;;;4897697;28;122445;-72
2022/04/18 05:02:26;;;;;;;3.37;1.93;;;0.80;99.90;0.60;101062.00;;;;4872587;28;92953;-71
2022/04/18 05:04:51;;;;;;;3.73;2.53;;;0.90;99.90;0.80;101056.00;;;;4868282;28;109784;-72
2022/04/18 05:07:17;;;;;;;2.67;2.47;;;1.10;99.90;1.00;101058.00;;;;4867749;28;92776;-71
2022/04/18 05:09:43;;;;;;;3.70;2.50;;;1.20;99.90;1.10;101062.00;;;;4857543;28;121246;-71
2022/04/18 05:12:09;;;;;;;3.57;2.37;;;1.30;99.90;1.30;101065.00;;;;4859554;28;110115;-72
2022/04/18 05:14:34;;;;;;;2.57;2.00;;;1.80;99.90;1.50;101063.00;;;;4878471;28;100473;-72
2022/04/18 05:17:02;;;;;;;4.07;3.33;;;1.70;99.90;1.60;101052.00;;;;4877251;28;120972;-72
2022/04/18 05:19:27;;;;;;;3.63;3.20;;;1.80;99.90;1.70;101064.00;;;;4861146;28;92739;-71
2022/04/18 05:21:53;;;;;;;4.77;3.27;;;1.90;99.90;1.90;101064.00;;;;4866576;28;110380;-72
2022/04/18 05:24:19;;;;;;;3.73;2.97;;;2.10;99.90;2.10;101070.00;;;;4858831;28;109452;-71
2022/04/18 05:26:46;;;;;;;4.00;3.07;;;2.20;99.90;2.30;101061.00;;;;4862584;28;122263;-71
2022/04/18 05:29:12;;;;;;;6.90;3.47;;;2.40;99.90;2.40;101069.00;;;;4879330;28;92123;-72
2022/04/18 05:31:38;;;;;;;4.30;2.60;;;2.60;99.90;2.60;101057.00;;;;4871314;28;92806;-72
2022/04/18 05:34:04;;;;;;;4.10;3.63;;;2.70;99.90;2.80;101062.00;;;;4854543;28;108679;-72
2022/04/18 05:36:29;;;;;;;6.07;3.87;;;2.90;99.90;3.00;101065.00;;;;4877208;28;122303;-72
2022/04/18 05:38:55;;;;;;;8.63;5.03;;;3.50;99.90;3.20;101059.00;;;;4877731;28;122793;-72
2022/04/18 05:41:21;;;;;;;15.07;6.10;;;3.30;99.90;3.50;101057.00;;;;4877436;28;110247;-72
2022/04/18 05:43:49;;;;;;;5.20;3.93;;;3.50;99.90;3.70;101066.00;;;;4858946;28;93876;-72
2022/04/18 05:46:15;;;;;;;8.47;4.53;;;3.70;99.90;3.90;101070.00;;;;4856789;28;93703;-71
2022/04/18 05:48:42;;;;;;;5.03;4.20;;;4.00;99.90;4.10;101067.00;;;;4859621;28;104212;-71
2022/04/18 05:51:08;;;;;;;9.00;4.47;;;4.20;99.90;4.30;101074.00;;;;4870733;28;108727;-71
2022/04/18 05:53:33;;;;;;;6.23;4.00;;;4.40;99.90;4.60;101057.00;;;;4872544;28;92080;-71
2022/04/18 05:55:59;;;;;;;6.83;5.37;;;4.60;99.90;4.80;101076.00;;;;4865555;28;122297;-71
2022/04/18 05:58:30;;;;;;;10.30;5.17;;;4.80;99.90;5.10;101071.00;;;;4870995;28;122295;-71
2022/04/18 06:00:56;;;;;;;8.83;5.70;;;5.10;99.90;5.20;101080.00;;;;4848107;28;93915;-71
2022/04/18 06:03:21;;;;;;;6.00;4.83;;;5.30;99.90;5.40;101085.00;;;;4870645;28;108345;-71
2022/04/18 06:05:47;;;;;;;6.27;3.63;;;5.50;99.90;5.70;101070.00;;;;4870572;28;122634;-71
2022/04/18 06:08:13;;;;;;;8.47;4.70;;;5.70;99.90;5.90;101082.00;;;;4865447;28;122087;-72
2022/04/18 06:10:41;;;;;;;6.73;3.93;;;5.90;99.90;6.10;101076.00;;;;4872017;28;92973;-71
2022/04/18 06:13:10;;;;;;;7.13;4.37;;;6.20;99.90;6.40;101079.00;;;;4871613;28;92791;-71
2022/04/18 06:15:36;;;;;;;5.57;3.77;;;6.40;99.90;6.60;101072.00;;;;4871606;28;93372;-71
2022/04/18 06:18:02;;;;;;;3.77;3.13;;;6.60;99.90;6.90;101078.00;;;;4870752;28;123858;-71
2022/04/18 06:20:27;;;;;;;4.57;3.17;;;6.90;99.90;7.20;101079.00;;;;4870918;28;109918;-71
2022/04/18 06:22:53;;;;;;;4.50;3.10;;;7.20;99.90;7.40;101079.00;;;;4852865;28;109008;-73
2022/04/18 06:25:19;;;;;;;3.93;3.23;;;7.40;99.90;7.60;101082.00;;;;4870482;28;102321;-71
2022/04/18 06:27:44;;;;;;;4.00;2.90;;;7.60;99.90;7.90;101093.00;;;;4866466;28;97921;-71
2022/04/18 06:30:10;;;;;;;6.37;3.40;;;7.90;99.90;8.10;101086.00;;;;4867625;28;110764;-71
2022/04/18 06:32:37;;;;;;;3.07;2.60;;;8.10;99.90;8.40;101093.00;;;;4868173;28;92892;-71
2022/04/18 06:35:04;;;;;;;3.83;3.10;;;8.30;99.90;8.60;101084.00;;;;4870291;28;93096;-70
2022/04/18 06:37:32;;;;;;;3.13;2.83;;;8.60;99.90;8.90;101089.00;;;;4869518;28;94104;-71
2022/04/18 06:39:58;;;;;;;3.23;2.90;;;8.80;99.90;9.20;101082.00;;;;4872283;28;93035;-70
2022/04/18 06:42:24;;;;;;;4.23;3.47;;;9.10;99.90;9.50;101095.00;;;;4868363;28;92352;-70
2022/04/18 06:44:50;;;;;;;5.90;3.50;;;9.40;99.90;9.70;101078.00;;;;4871433;28;93453;-70
2022/04/18 06:47:17;;;;;;;3.73;2.20;;;9.60;99.20;10.00;101089.00;;;;4869987;28;124078;-71
2022/04/18 06:49:43;;;;;;;5.13;3.00;;;9.90;98.80;10.30;101086.00;;;;4870793;28;94124;-71
2022/04/18 06:52:08;;;;;;;5.20;3.53;;;10.20;97.60;10.50;101099.00;;;;4870771;28;109166;-71
2022/04/18 06:54:34;;;;;;;8.73;3.77;;;10.50;96.70;10.80;101088.00;;;;4869982;28;93158;-71
2022/04/18 06:57:00;;;;;;;4.43;3.17;;;10.70;94.70;11.00;101090.00;;;;4866608;28;123598;-71
2022/04/18 06:59:30;;;;;;;4.57;2.90;;;11.00;92.90;11.20;101090.00;;;;4868542;28;93081;-70
2022/04/18 07:01:57;;;;;;;5.77;3.67;;;11.10;91.30;11.30;101088.00;;;;4853491;28;93411;-72
2022/04/18 07:04:24;;;;;;;4.63;3.47;;;11.50;90.70;11.50;101089.00;;;;4871504;28;93190;-70
2022/04/18 07:06:50;;;;;;;5.40;3.20;;;11.40;88.60;11.60;101090.00;;;;4870914;28;93712;-69
2022/04/18 07:09:17;;;;;;;4.23;3.10;;;11.60;87.00;11.80;101089.00;;;;4869915;28;93155;-70
2022/04/18 07:11:45;;;;;;;3.90;3.27;;;11.70;86.80;12.00;101096.00;;;;4868914;28;99297;-69
2022/04/18 07:14:12;;;;;;;6.13;3.37;;;11.80;86.80;12.30;101099.00;;;;4870422;28;95107;-70
2022/04/18 07:16:38;;;;;;;6.20;3.90;;;12.20;86.80;12.60;101083.00;;;;4853561;28;93593;-69
2022/04/18 07:19:08;;;;;;;5.57;3.40;;;12.50;83.60;12.80;101099.00;;;;4871876;28;92715;-70
2022/04/18 07:21:33;;;;;;;4.27;3.87;;;12.70;82.50;13.10;101103.00;;;;4848375;28;108636;-70
2022/04/18 07:23:59;;;;;;;6.20;3.37;;;12.90;79.20;13.20;101089.00;;;;4870661;28;109192;-70
2022/04/18 07:26:25;;;;;;;4.70;3.00;;;13.10;78.50;13.30;101101.00;;;;4870784;28;94370;-71
2022/04/18 07:28:51;;;;;;;4.03;3.47;;;13.30;77.60;13.40;101103.00;;;;4870515;28;109963;-71
2022/04/18 07:31:17;;;;;;;4.90;3.43;;;13.40;75.70;13.60;101103.00;;;;4871632;28;92231;-71
2022/04/18 07:33:43;;;;;;;3.57;2.87;;;13.50;73.40;13.70;101092.00;;;;4871361;28;123153;-71
2022/04/18 07:36:08;;;;;;;3.37;3.07;;;13.60;72.90;13.70;101084.00;;;;4872379;28;105224;-72
2022/04/18 07:38:49;;;;;;;4.63;3.60;;;13.70;71.00;13.70;101088.00;;;;4850273;28;105642;-70
2022/04/18 07:41:21;;;;;;;5.90;3.73;;;13.60;68.40;13.50;101085.00;;;;4873659;28;92783;-70
2022/04/18 07:43:48;;;;;;;7.77;3.87;;;13.50;68.40;13.40;101086.00;;;;4873462;28;94119;-71
2022/04/18 07:46:18;;;;;;;3.27;2.97;;;13.40;67.50;13.30;101085.00;;;;4868851;28;93018;-71
2022/04/18 07:48:49;;;;;;;4.50;3.77;;;13.40;68.50;13.40;101078.00;;;;4849205;28;93682;-71
2022/04/18 07:54:20;;;;;;;4.30;3.23;;;13.50;68.50;13.70;101087.00;;;;4870854;28;93182;-71
2022/04/18 07:56:47;;;;;;;8.97;3.93;;;13.60;68.90;13.90;101081.00;;;;4873999;28;92121;-71
2022/04/18 07:59:13;;;;;;;5.90;3.50;;;13.80;67.40;13.90;101085.00;;;;4853799;28;92943;-70
2022/04/18 08:01:38;;;;;;;3.17;2.87;;;13.90;67.40;14.20;101080.00;;;;4872130;28;92736;-71
2022/04/18 08:04:04;;;;;;;4.63;3.60;;;14.10;67.20;14.40;101090.00;;;;4851829;28;94248;-71
2022/04/18 08:06:32;;;;;;;5.50;3.37;;;14.30;66.50;14.70;101083.00;;;;4856227;28;93707;-71
2022/04/18 08:08:58;;;;;;;6.63;3.50;;;14.50;66.60;14.90;101084.00;;;;4874610;28;93541;-71
2022/04/18 08:11:25;;;;;;;6.70;3.27;;;14.80;64.80;15.00;101091.00;;;;4873601;28;92872;-71
2022/04/18 08:13:51;;;;;;;5.90;2.72;;;14.90;61.70;14.90;101094.00;;;;4871834;28;99817;-71
2022/04/18 08:16:18;;;;;;;4.93;2.37;;;15.00;61.00;14.90;101089.00;;;;4872562;28;93286;-71
2022/04/18 08:18:47;;;;;;;3.23;2.83;;;14.90;61.30;14.90;101090.00;;;;4856609;28;93045;-71
2022/04/18 08:21:15;;;;;;;6.97;3.00;;;14.90;61.00;15.10;101081.00;;;;4874172;28;92085;-71
2022/04/18 08:23:42;;;;;;;4.43;2.53;;;15.00;60.90;15.30;101082.00;;;;4873425;28;93020;-71
2022/04/18 08:26:08;;;;;;;4.93;2.43;;;15.20;61.00;15.70;101074.00;;;;4872951;28;94078;-71
2022/04/18 08:28:34;;;;;;;3.63;2.42;;;15.50;61.00;16.10;101079.00;;;;4872577;28;100277;-71
2022/04/18 08:31:01;;;;;;;1.42;1.33;;;15.90;60.00;16.50;101072.00;;;;4874261;28;92883;-71
2022/04/18 08:33:29;;;;;;;3.13;2.10;;;16.10;58.80;16.80;101070.00;;;;4871519;28;94210;-70
2022/04/18 08:35:59;;;;;;;2.60;1.70;;;16.50;57.60;17.10;101068.00;;;;4854196;28;93125;-70
2022/04/18 08:38:28;;;;;;;2.42;1.90;;;16.80;56.90;17.30;101081.00;;;;4873555;28;92747;-71
2022/04/18 08:40:59;;;;;;;2.47;1.50;;;17.10;55.60;17.50;101076.00;;;;4868912;28;93201;-71
2022/04/18 08:43:25;;;;;;;2.33;1.70;;;17.30;55.30;17.70;101073.00;;;;4855627;28;93488;-71
2022/04/18 08:45:50;;;;;;;3.42;2.00;;;17.50;54.80;17.90;101072.00;;;;4872376;28;122096;-71
2022/04/18 08:53:50;;;;;;;3.83;2.40;;;18.10;53.00;18.50;101066.00;;;;4856811;28;93986;-78
2022/04/18 08:56:15;;;;;;;2.78;1.90;;;18.20;52.30;18.60;101065.00;;;;4836865;28;96610;-76
2022/04/18 08:58:44;;;;;;;2.85;2.38;;;18.40;51.50;18.70;101064.00;;;;4853422;28;109327;-76
2022/04/18 09:01:09;;;;;;;5.38;2.70;;;18.50;51.00;18.90;101056.00;;;;4872706;28;93837;-76
2022/04/18 09:03:35;;;;;;;2.35;1.90;;;18.60;49.30;18.90;101054.00;;;;4853831;28;95719;-76
2022/04/18 09:06:10;;;;;;;2.17;1.50;;;18.70;49.70;18.90;101052.00;;;;4870537;28;123669;-78
2022/04/18 09:08:54;;;;;;;2.70;2.08;;;18.90;49.60;19.00;101058.00;;;;4853182;28;93106;-77
2022/04/18 09:11:31;;;;;;;2.58;1.80;;;18.80;49.40;19.10;101049.00;;;;4855004;28;92214;-77
2022/04/18 09:14:09;;;;;;;1.83;1.45;;;19.00;48.00;19.10;101042.00;;;;4871631;28;94392;-77
2022/04/18 09:16:37;;;;;;;2.65;1.65;;;18.90;48.00;19.20;101043.00;;;;4854018;28;93649;-78
2022/04/18 09:19:13;;;;;;;3.75;2.17;;;19.00;48.30;19.30;101041.00;;;;4871779;28;94054;-77
2022/04/18 09:21:58;;;;;;;1.85;1.52;;;19.00;48.40;19.50;101027.00;;;;4849485;28;93128;-77
2022/04/18 09:24:37;;;;;;;4.85;1.35;;;19.20;48.40;19.70;101035.00;;;;4853080;28;93334;-75
2022/04/18 09:27:06;;;;;;;4.93;1.92;;;19.40;47.90;19.90;101027.00;;;;4863565;28;93150;-77
2022/04/18 09:29:33;;;;;;;1.85;1.67;;;19.60;47.20;20.10;101030.00;;;;4870849;28;92935;-77
2022/04/18 09:31:59;;;;;;;2.45;1.98;;;19.80;46.40;20.30;101026.00;;;;4854439;28;92997;-76
2022/04/18 09:34:25;;;;;;;2.35;1.92;;;19.90;45.60;20.30;101032.00;;;;4872456;28;93198;-76
2022/04/18 09:37:21;;;;;;;2.05;1.00;;;20.00;43.70;20.40;101023.00;;;;4870602;28;122725;-76
2022/04/18 09:39:54;;;;;;;2.35;1.38;;;20.00;44.50;20.60;101008.00;;;;4865474;28;93118;-75
2022/04/18 09:42:23;;;;;;;2.78;1.67;;;20.10;44.60;20.80;101004.00;;;;3986374;28;10094479;-76
2022/04/18 09:44:50;;;;;;;5.10;2.10;;;20.30;42.60;20.70;101000.00;;;;4852538;28;93864;-79
2022/04/18 09:47:17;;;;;;;3.90;1.60;;;20.30;43.30;20.80;101001.00;;;;4854314;28;93347;-77
2022/04/18 09:49:44;;;;;;;3.15;1.35;;;20.30;43.80;20.90;101000.00;;;;4853366;28;93194;-78
2022/04/18 09:52:12;;;;;;;1.75;1.23;;;20.50;43.90;21.10;101004.00;;;;4869160;28;93117;-77
2022/04/18 09:54:45;;;;;;;2.00;1.35;;;20.60;43.90;21.20;101003.00;;;;4865772;28;93275;-77
2022/04/18 09:57:11;;;;;;;1.27;1.17;;;20.70;40.80;21.30;100997.00;;;;4853322;28;92998;-77
2022/04/18 09:59:39;;;;;;;1.45;1.10;;;20.80;41.50;21.50;101002.00;;;;4852709;28;123020;-76
2022/04/18 10:02:11;;;;;;;1.15;1.05;;;21.00;40.40;21.40;100996.00;;;;4869948;28;123692;-77
2022/04/18 10:04:37;;;;;;;1.50;1.30;;;21.00;39.10;21.30;100989.00;;;;4848629;28;100953;-77
2022/04/18 10:07:06;;;;;;;1.65;1.15;;;20.90;38.90;21.10;100992.00;;;;4852675;28;108007;-75
2022/04/18 10:09:32;;;;;;;1.95;0.90;;;20.70;38.60;21.20;100984.00;;;;4853144;28;95152;-77
2022/04/18 10:11:59;;;;;;;1.55;1.02;;;20.70;39.60;21.10;100994.00;;;;4836349;28;123790;-77
2022/04/18 10:14:24;;;;;;;2.03;1.13;;;20.70;37.60;20.90;100980.00;;;;4852907;28;92902;-77
2022/04/18 10:16:51;;;;;;;1.25;1.02;;;20.50;37.80;20.50;100980.00;;;;4853552;28;92814;-77
2022/04/18 10:19:23;;;;;;;0.77;0.70;;;20.20;38.00;20.60;100976.00;;;;4852370;28;123038;-76
2022/04/18 10:22:08;;;;;;;0.82;0.73;;;20.10;38.50;20.60;100981.00;;;;4870979;28;93233;-77
2022/04/18 10:25:01;;;;;;;0.85;0.65;;;20.10;38.60;20.90;100981.00;;;;4853583;28;92918;-76
2022/04/18 10:27:47;;;;;;;1.15;0.93;;;20.30;38.90;21.30;100975.00;;;;4868934;28;92302;-77
2022/04/18 10:30:14;;;;;;;1.67;1.00;;;20.60;38.70;21.50;100962.00;;;;4853255;28;116097;-77
2022/04/18 10:32:41;;;;;;;1.05;0.70;;;20.80;38.10;21.80;100966.00;;;;4850499;28;116768;-76
2022/04/18 10:35:07;;;;;;;1.15;0.82;;;21.10;38.50;22.20;100964.00;;;;4851937;28;109340;-76
2022/04/18 10:37:33;;;;;;;1.45;0.82;;;21.40;38.10;22.30;100964.00;;;;4869257;28;93068;-76
2022/04/18 10:40:10;;;;;;;1.55;0.90;;;21.60;37.20;22.50;100962.00;;;;4869912;28;123935;-76
2022/04/18 10:42:38;;;;;;;2.33;1.08;;;21.80;37.30;22.60;100960.00;;;;4852651;28;93423;-76
2022/04/18 10:45:12;;;;;;;3.75;1.67;;;22.00;37.30;22.60;100958.00;;;;4869158;28;92937;-76
2022/04/18 10:47:59;;;;;;;2.45;0.90;;;22.00;35.50;22.30;100953.00;;;;4846801;28;93350;-77
2022/04/18 10:50:28;;;;;;;0.57;0.43;;;21.90;34.70;22.30;100957.00;;;;4836767;28;96550;-76
2022/04/18 10:53:19;;;;;;;0.82;0.70;;;21.80;34.90;22.10;100954.00;;;;4852049;28;92735;-76
2022/04/18 10:55:51;;;;;;;2.50;1.55;;;21.70;35.10;22.20;100952.00;;;;4847659;28;93358;-76
2022/04/18 10:58:25;;;;;;;2.97;1.13;;;21.70;35.30;22.20;100948.00;;;;4870566;28;94877;-76
2022/04/18 11:00:56;;;;;;;1.48;0.82;;;21.60;35.20;22.40;100942.00;;;;4843490;28;96739;-77
2022/04/18 11:03:50;;;;;;;2.15;0.95;;;21.70;36.00;22.40;100938.00;;;;4868433;28;93595;-76
2022/04/18 11:06:16;;;;;;;1.15;0.77;;;21.80;35.00;22.50;100940.00;;;;4864108;28;93264;-75
2022/04/18 11:08:57;;;;;;;2.10;1.20;;;21.80;35.40;22.70;100930.00;;;;4868776;28;105352;-76
2022/04/18 11:11:22;;;;;;;1.67;0.95;;;22.00;35.60;22.80;100926.00;;;;4836839;28;110307;-77
2022/04/18 11:13:49;;;;;;;1.35;0.77;;;22.10;34.60;22.90;100935.00;;;;4868976;28;122523;-78